createdAt,value
2022-11-18T00:18:59.843Z,8.00
2022-11-18T00:21:27.987Z,7.70
2022-11-18T00:23:58.072Z,4.90
2022-11-18T00:26:26.437Z,4.10
2022-11-18T00:28:56.429Z,5.27
2022-11-18T00:31:30.494Z,6.67
2022-11-18T00:33:59.056Z,5.23
2022-11-18T00:36:28.043Z,5.00
2022-11-18T00:38:57.544Z,7.77
2022-11-18T00:41:45.749Z,6.93
2022-11-18T00:44:17.310Z,6.30
2022-11-18T00:46:46.257Z,3.37
2022-11-18T00:49:24.463Z,4.77
2022-11-18T00:52:03.981Z,5.10
2022-11-18T00:54:38.771Z,4.20
2022-11-18T00:57:19.049Z,4.50
2022-11-18T01:00:01.811Z,3.87
2022-11-18T01:02:47.014Z,3.00
2022-11-18T01:05:29.528Z,2.53
2022-11-18T01:08:33.786Z,5.27
2022-11-18T01:11:19.183Z,6.30
2022-11-18T01:13:54.348Z,3.50
2022-11-18T01:16:35.429Z,3.13
2022-11-18T01:22:42.284Z,2.90
2022-11-18T01:25:14.220Z,3.00
2022-11-18T01:27:46.194Z,2.73
2022-11-18T01:30:25.671Z,2.93
2022-11-18T01:33:00.004Z,2.30
2022-11-18T01:35:28.270Z,2.30
2022-11-18T01:37:59.296Z,2.63
2022-11-18T01:40:33.431Z,2.77
2022-11-18T01:43:05.209Z,2.50
2022-11-18T01:45:38.762Z,2.53
2022-11-18T01:48:12.735Z,2.50
2022-11-18T01:50:47.820Z,2.47
2022-11-18T01:53:23.438Z,2.90
2022-11-18T01:56:01.342Z,2.30
2022-11-18T01:58:36.981Z,2.50
2022-11-18T02:01:11.005Z,2.27
2022-11-18T02:03:48.205Z,2.40
2022-11-18T02:10:27.936Z,2.33
2022-11-18T02:13:23.943Z,2.60
2022-11-18T02:16:09.108Z,2.57
2022-11-18T02:18:59.912Z,2.47
2022-11-18T02:29:27.636Z,2.53
2022-11-18T02:32:02.285Z,2.90
2022-11-18T02:34:42.535Z,2.60
2022-11-18T02:37:19.160Z,2.60
2022-11-18T02:39:54.480Z,2.20
2022-11-18T02:42:25.988Z,2.30
2022-11-18T02:45:02.732Z,2.50
2022-11-18T02:47:32.842Z,3.23
2022-11-18T02:50:05.025Z,2.70
2022-11-18T02:52:38.825Z,2.60
2022-11-18T02:55:10.036Z,2.50
2022-11-18T02:57:40.034Z,2.53
2022-11-18T03:00:12.445Z,3.87
2022-11-18T03:09:19.019Z,5.77
2022-11-18T03:12:04.569Z,5.33
2022-11-18T03:15:18.803Z,4.60
2022-11-18T03:19:05.094Z,4.07
2022-11-18T03:21:53.170Z,4.10
2022-11-18T03:24:34.565Z,4.00
2022-11-18T03:27:26.432Z,3.73
2022-11-18T03:30:11.518Z,3.37
2022-11-18T03:33:27.734Z,3.87
2022-11-18T03:36:12.371Z,3.90
2022-11-18T03:38:46.685Z,4.13
2022-11-18T03:41:20.401Z,4.40
2022-11-18T03:43:56.353Z,3.60
2022-11-18T03:46:40.117Z,3.90
2022-11-18T03:49:23.668Z,3.70
2022-11-18T03:52:10.873Z,3.53
2022-11-18T03:54:48.199Z,3.73
2022-11-18T03:57:22.815Z,3.20
2022-11-18T03:59:58.335Z,3.57
2022-11-18T04:02:33.239Z,4.10
2022-11-18T04:05:12.281Z,3.70
2022-11-18T04:07:53.715Z,3.70
2022-11-18T04:10:30.489Z,3.87
2022-11-18T04:13:09.161Z,4.07
2022-11-18T04:15:45.547Z,4.23
2022-11-18T04:18:23.113Z,4.00
2022-11-18T04:20:52.000Z,3.97
2022-11-18T04:23:30.437Z,4.30
2022-11-18T04:26:04.356Z,4.33
2022-11-18T04:28:44.335Z,4.03
2022-11-18T04:31:12.542Z,3.77
2022-11-18T04:33:46.965Z,3.90
2022-11-18T04:36:17.443Z,4.03
2022-11-18T04:39:11.035Z,4.20
2022-11-18T04:42:09.199Z,4.70
2022-11-18T04:45:03.174Z,5.70
2022-11-18T04:48:03.876Z,3.67
2022-11-18T04:50:32.297Z,3.93
2022-11-18T04:53:00.439Z,4.33
2022-11-18T04:55:30.217Z,3.97
2022-11-18T04:58:10.121Z,5.10
2022-11-18T05:00:41.933Z,4.53
2022-11-18T05:07:48.273Z,4.20
2022-11-18T05:13:32.208Z,3.83
2022-11-18T05:16:02.680Z,3.80
2022-11-18T05:18:31.062Z,3.67
2022-11-18T05:20:58.888Z,3.80
2022-11-18T05:23:28.134Z,3.60
2022-11-18T05:26:01.284Z,3.23
2022-11-18T05:28:41.422Z,3.70
2022-11-18T05:31:13.703Z,3.70
2022-11-18T05:33:42.853Z,3.60
2022-11-18T05:36:13.230Z,4.17
2022-11-18T05:42:27.142Z,3.30
2022-11-18T05:44:58.735Z,3.47
2022-11-18T05:47:30.721Z,3.20
2022-11-18T05:50:00.193Z,3.00
2022-11-18T05:52:34.010Z,3.83
2022-11-18T05:55:05.446Z,3.60
2022-11-18T05:57:37.209Z,3.67
2022-11-18T06:03:16.269Z,3.10
2022-11-18T06:05:51.259Z,3.87
2022-11-18T06:08:21.546Z,3.00
2022-11-18T06:10:56.513Z,3.50
2022-11-18T06:13:31.239Z,3.40
2022-11-18T06:16:02.458Z,3.37
2022-11-18T06:18:41.428Z,3.30
2022-11-18T06:21:16.215Z,3.60
2022-11-18T06:23:45.124Z,3.30
2022-11-18T06:26:33.579Z,3.27
2022-11-18T06:32:44.561Z,3.50
2022-11-18T06:39:29.430Z,3.00
2022-11-18T06:42:00.659Z,3.53
2022-11-18T06:44:27.802Z,2.83
2022-11-18T06:47:02.806Z,3.23
2022-11-18T06:49:32.294Z,2.93
2022-11-18T06:52:00.446Z,2.87
2022-11-18T06:54:28.678Z,3.10
2022-11-18T06:56:56.757Z,3.53
2022-11-18T06:59:25.018Z,3.10
2022-11-18T07:01:54.097Z,2.93
2022-11-18T07:04:22.317Z,3.23
2022-11-18T07:06:52.342Z,3.30
2022-11-18T07:09:22.113Z,3.10
2022-11-18T07:11:50.222Z,3.60
2022-11-18T07:14:23.915Z,3.20
2022-11-18T07:16:52.040Z,3.20
2022-11-18T07:19:32.869Z,3.10
2022-11-18T07:22:04.891Z,2.93
2022-11-18T07:24:32.905Z,3.00
2022-11-18T07:27:01.266Z,2.70
2022-11-18T07:29:29.375Z,2.80
2022-11-18T07:31:57.409Z,2.67
2022-11-18T07:34:25.362Z,2.93
2022-11-18T07:36:53.301Z,3.20
2022-11-18T07:39:25.523Z,3.30
2022-11-18T07:41:53.600Z,3.00
2022-11-18T07:44:21.559Z,3.00
2022-11-18T07:46:49.737Z,2.87
2022-11-18T07:49:19.254Z,2.87
2022-11-18T07:51:47.494Z,2.97
2022-11-18T07:54:16.953Z,3.10
2022-11-18T07:56:46.645Z,2.90
2022-11-18T07:59:14.929Z,2.90
2022-11-18T08:01:47.134Z,3.93
2022-11-18T08:04:15.244Z,6.67
2022-11-18T08:06:43.051Z,8.20
2022-11-18T08:09:11.123Z,5.93
2022-11-18T08:11:40.739Z,5.17
2022-11-18T08:14:10.058Z,6.17
2022-11-18T08:16:37.778Z,6.10
2022-11-18T08:19:05.554Z,6.27
2022-11-18T08:21:33.254Z,5.90
2022-11-18T08:24:01.013Z,4.93
2022-11-18T08:26:29.444Z,4.47
2022-11-18T08:28:58.628Z,4.80
2022-11-18T08:31:29.093Z,4.70
2022-11-18T08:33:57.673Z,4.77
2022-11-18T08:36:28.050Z,4.83
2022-11-18T08:38:56.515Z,4.93
2022-11-18T08:41:30.372Z,5.67
2022-11-18T08:43:58.359Z,6.07
2022-11-18T08:46:27.431Z,5.30
2022-11-18T08:48:55.128Z,5.07
2022-11-18T08:51:23.088Z,4.73
2022-11-18T08:53:50.809Z,5.03
2022-11-18T08:56:21.344Z,5.47
2022-11-18T08:58:49.390Z,4.70
2022-11-18T09:01:17.748Z,4.90
2022-11-18T09:03:47.189Z,6.27
2022-11-18T09:06:16.780Z,6.00
2022-11-18T09:08:45.108Z,6.23
2022-11-18T09:11:15.205Z,5.03
2022-11-18T09:16:36.971Z,6.20
2022-11-18T09:19:31.680Z,5.53
2022-11-18T09:21:53.902Z,6.10
2022-11-18T09:24:21.931Z,5.90
2022-11-18T09:26:50.154Z,5.20
2022-11-18T09:29:17.977Z,5.83
2022-11-18T09:31:46.005Z,5.13
2022-11-18T09:34:15.472Z,4.93
2022-11-18T09:36:43.768Z,5.93
2022-11-18T09:39:11.549Z,4.83
2022-11-18T09:41:46.035Z,4.47
2022-11-18T09:44:34.198Z,3.80
2022-11-18T09:47:12.637Z,3.60
2022-11-18T09:49:44.174Z,3.70
2022-11-18T09:52:19.085Z,3.35
2022-11-18T09:54:47.105Z,3.10
2022-11-18T09:57:17.608Z,3.70
2022-11-18T09:59:45.884Z,3.17
2022-11-18T10:02:29.852Z,3.00
2022-11-18T10:05:08.839Z,2.70
2022-11-18T10:07:44.335Z,3.30
2022-11-18T10:10:18.045Z,2.75
2022-11-18T10:12:51.238Z,2.63
2022-11-18T10:15:25.949Z,2.53
2022-11-18T10:18:02.686Z,2.15
2022-11-18T10:20:44.130Z,1.65
2022-11-18T10:23:17.991Z,1.83
2022-11-18T10:25:45.757Z,1.98
2022-11-18T10:28:22.682Z,1.90
2022-11-18T10:30:50.647Z,1.88
2022-11-18T10:33:25.309Z,1.60
2022-11-18T10:36:10.250Z,2.00
2022-11-18T10:38:38.005Z,2.05
2022-11-18T10:41:10.237Z,1.88
2022-11-18T10:43:49.647Z,1.73
2022-11-18T10:46:20.922Z,1.52
2022-11-18T10:48:48.667Z,1.60
2022-11-18T10:51:25.550Z,1.50
2022-11-18T10:53:53.300Z,1.67
2022-11-18T10:56:21.111Z,2.10
2022-11-18T10:58:52.615Z,2.00
2022-11-18T11:01:23.947Z,1.80
2022-11-18T11:04:00.124Z,1.85
2022-11-18T11:06:34.176Z,1.75
2022-11-18T11:09:05.673Z,1.83
2022-11-18T11:11:35.616Z,1.90
2022-11-18T11:14:14.122Z,1.70
2022-11-18T11:16:50.283Z,2.00
2022-11-18T11:19:22.788Z,2.28
2022-11-18T11:21:52.400Z,1.73
2022-11-18T11:24:23.356Z,1.98
2022-11-18T11:30:24.375Z,1.92
2022-11-18T11:33:10.024Z,1.80
2022-11-18T11:35:48.122Z,1.80
2022-11-18T11:38:22.964Z,1.92
2022-11-18T11:41:02.040Z,1.80
2022-11-18T11:43:39.572Z,1.63
2022-11-18T11:46:29.054Z,1.45
2022-11-18T11:49:11.508Z,1.60
2022-11-18T11:51:46.770Z,2.03
2022-11-18T11:54:25.279Z,1.90
2022-11-18T11:56:58.906Z,1.55
2022-11-18T11:59:32.763Z,2.00
2022-11-18T12:02:24.288Z,2.08
2022-11-18T12:04:55.036Z,2.17
2022-11-18T12:07:26.975Z,3.13
2022-11-18T12:10:10.096Z,2.17
2022-11-18T12:12:46.835Z,2.10
2022-11-18T12:15:27.407Z,2.03
2022-11-18T12:18:04.901Z,1.98
2022-11-18T12:20:38.438Z,2.40
2022-11-18T12:23:21.082Z,2.45
2022-11-18T12:26:05.906Z,2.50
2022-11-18T12:28:37.163Z,2.00
2022-11-18T12:31:41.917Z,2.17
2022-11-18T12:34:29.825Z,2.20
2022-11-18T12:36:57.932Z,1.92
2022-11-18T12:39:50.215Z,1.80
2022-11-18T12:43:01.800Z,2.28
2022-11-18T12:45:57.568Z,1.85
2022-11-18T12:48:43.457Z,1.95
2022-11-18T12:51:42.383Z,2.25
2022-11-18T12:54:35.530Z,2.15
2022-11-18T12:57:12.056Z,1.95
2022-11-18T12:59:41.251Z,1.80
2022-11-18T13:02:23.384Z,1.90
2022-11-18T13:05:05.852Z,1.75
2022-11-18T13:08:01.649Z,1.92
2022-11-18T13:10:32.639Z,1.90
2022-11-18T13:13:00.815Z,2.22
2022-11-18T13:15:47.832Z,1.83
2022-11-18T13:18:18.184Z,1.73
2022-11-18T13:20:57.454Z,2.00
2022-11-18T13:23:46.066Z,2.33
2022-11-18T13:26:19.317Z,1.90
2022-11-18T13:29:01.270Z,2.00
2022-11-18T13:31:37.337Z,1.85
2022-11-18T13:34:13.570Z,2.10
2022-11-18T13:36:45.243Z,2.33
2022-11-18T13:39:21.887Z,2.00
2022-11-18T13:42:00.549Z,1.83
2022-11-18T13:44:30.334Z,1.98
2022-11-18T13:47:05.876Z,2.03
2022-11-18T13:49:50.549Z,2.00
2022-11-18T13:52:24.643Z,1.75
2022-11-18T13:54:55.062Z,1.83
2022-11-18T13:57:26.038Z,2.25
2022-11-18T13:59:55.409Z,2.22
2022-11-18T14:02:24.617Z,2.22
2022-11-18T14:04:56.941Z,1.75
2022-11-18T14:07:31.874Z,1.77
2022-11-18T14:10:03.557Z,2.17
2022-11-18T14:12:33.245Z,2.88
2022-11-18T14:15:16.704Z,2.10
2022-11-18T14:17:54.883Z,2.40
2022-11-18T14:20:23.286Z,1.70
2022-11-18T14:22:55.595Z,2.38
2022-11-18T14:25:28.288Z,1.77
2022-11-18T14:27:57.682Z,1.35
2022-11-18T14:30:38.286Z,1.48
2022-11-18T14:33:28.716Z,1.70
2022-11-18T14:35:59.121Z,1.48
2022-11-18T14:41:44.747Z,1.50
2022-11-18T14:44:14.274Z,1.52
2022-11-18T14:46:44.499Z,1.73
2022-11-18T14:49:17.994Z,1.50
2022-11-18T14:51:46.849Z,1.67
2022-11-18T14:54:20.836Z,3.15
2022-11-18T14:56:55.452Z,4.20
2022-11-18T14:59:23.510Z,3.70
2022-11-18T15:01:51.467Z,2.50
2022-11-18T15:04:22.065Z,3.08
2022-11-18T15:06:50.381Z,5.20
2022-11-18T15:09:18.304Z,5.13
2022-11-18T15:11:46.159Z,4.13
2022-11-18T15:14:14.011Z,3.42
2022-11-18T15:16:41.845Z,3.22
2022-11-18T15:19:15.275Z,3.03
2022-11-18T15:21:45.338Z,2.63
2022-11-18T15:24:13.306Z,2.45
2022-11-18T15:26:44.499Z,2.00
2022-11-18T15:29:17.804Z,1.88
2022-11-18T15:31:46.198Z,1.70
2022-11-18T15:34:16.089Z,1.87
2022-11-18T15:36:45.848Z,1.70
2022-11-18T15:39:14.342Z,1.80
2022-11-18T15:41:43.737Z,1.70
2022-11-18T15:44:12.137Z,1.70
2022-11-18T15:46:40.589Z,1.80
2022-11-18T15:49:13.407Z,1.60
2022-11-18T15:51:41.955Z,1.60
2022-11-18T15:54:12.393Z,1.60
2022-11-18T15:56:41.681Z,1.70
2022-11-18T15:59:12.752Z,3.70
2022-11-18T16:01:42.742Z,2.20
2022-11-18T16:04:12.593Z,2.03
2022-11-18T16:06:43.455Z,1.63
2022-11-18T16:09:13.657Z,1.67
2022-11-18T16:11:59.710Z,1.60
2022-11-18T16:14:29.133Z,1.53
2022-11-18T16:16:57.880Z,1.50
2022-11-18T16:19:29.741Z,1.60
2022-11-18T16:21:58.121Z,2.30
2022-11-18T16:24:29.607Z,1.77
2022-11-18T16:26:57.739Z,1.63
2022-11-18T16:29:26.205Z,1.50
2022-11-18T16:31:54.251Z,2.10
2022-11-18T16:34:24.221Z,2.10
2022-11-18T16:36:54.276Z,2.47
2022-11-18T16:39:25.190Z,2.87
2022-11-18T16:42:06.424Z,1.83
2022-11-18T16:44:35.375Z,2.37
2022-11-18T16:47:07.567Z,3.70
2022-11-18T16:49:38.664Z,6.93
2022-11-18T16:52:08.471Z,5.73
2022-11-18T16:54:42.872Z,5.43
2022-11-18T16:57:14.393Z,9.57
2022-11-18T16:59:42.342Z,13.17
2022-11-18T17:02:13.447Z,8.23
2022-11-18T17:04:41.447Z,7.20
2022-11-18T17:07:09.635Z,7.40
2022-11-18T17:09:37.824Z,5.23
2022-11-18T17:12:07.088Z,5.80
2022-11-18T17:14:38.699Z,3.80
2022-11-18T17:17:07.277Z,3.77
2022-11-18T17:19:35.222Z,3.83
2022-11-18T17:22:03.518Z,6.73
2022-11-18T17:24:32.057Z,5.10
2022-11-18T17:27:00.119Z,9.10
2022-11-18T17:29:28.331Z,5.00
2022-11-18T17:31:59.764Z,3.40
2022-11-18T17:34:27.788Z,2.77
2022-11-18T17:37:00.206Z,2.47
2022-11-18T17:39:31.924Z,2.37
2022-11-18T17:42:15.172Z,2.77
2022-11-18T17:44:44.147Z,2.90
2022-11-18T17:47:13.617Z,4.83
2022-11-18T17:49:41.640Z,4.10
2022-11-18T17:52:09.886Z,4.83
2022-11-18T17:54:37.961Z,3.60
2022-11-18T17:57:05.958Z,3.40
2022-11-18T17:59:33.874Z,5.10
2022-11-18T18:02:01.926Z,4.27
2022-11-18T18:04:32.045Z,5.17
2022-11-18T18:07:00.109Z,4.63
2022-11-18T18:09:31.014Z,4.87
2022-11-18T18:12:00.911Z,5.23
2022-11-18T18:14:28.126Z,5.90
2022-11-18T18:16:56.020Z,5.13
2022-11-18T18:19:25.061Z,5.00
2022-11-18T18:21:54.375Z,3.87
2022-11-18T18:24:22.812Z,4.50
2022-11-18T18:26:51.185Z,4.73
2022-11-18T18:29:22.341Z,4.30
2022-11-18T18:31:50.509Z,4.60
2022-11-18T18:34:19.459Z,5.40
2022-11-18T18:36:48.000Z,4.73
2022-11-18T18:39:17.508Z,4.67
2022-11-18T18:41:45.586Z,4.47
2022-11-18T18:44:18.300Z,4.83
2022-11-18T18:46:45.854Z,4.60
2022-11-18T18:49:15.774Z,4.27
2022-11-18T18:51:46.041Z,4.67
2022-11-18T18:54:16.061Z,4.53
2022-11-18T18:56:46.147Z,3.93
2022-11-18T18:59:14.255Z,4.17
2022-11-18T19:01:44.150Z,4.47
2022-11-18T19:04:14.142Z,4.40
2022-11-18T19:06:59.362Z,4.20
2022-11-18T19:09:30.461Z,4.23
2022-11-18T19:12:18.578Z,3.80
2022-11-18T19:14:46.966Z,3.80
2022-11-18T19:17:15.481Z,3.67
2022-11-18T19:20:04.083Z,3.53
2022-11-18T19:22:35.121Z,3.47
2022-11-18T19:25:03.310Z,3.77
2022-11-18T19:27:33.835Z,3.53
2022-11-18T19:30:02.266Z,3.50
2022-11-18T19:32:31.715Z,3.67
2022-11-18T19:34:59.786Z,3.83
2022-11-18T19:37:28.020Z,6.03
2022-11-18T19:39:55.993Z,3.40
2022-11-18T19:42:26.498Z,3.40
2022-11-18T19:44:56.313Z,3.47
2022-11-18T19:47:24.391Z,3.50
2022-11-18T19:49:52.388Z,4.50
2022-11-18T19:52:20.350Z,4.10
2022-11-18T19:54:48.272Z,4.63
2022-11-18T19:57:16.868Z,4.07
2022-11-18T19:59:45.878Z,4.37
2022-11-18T20:02:15.664Z,4.87
2022-11-18T20:05:04.399Z,4.60
2022-11-18T20:07:32.431Z,4.37
2022-11-18T20:10:00.320Z,4.10
2022-11-18T20:12:29.545Z,4.60
2022-11-18T20:14:57.343Z,4.43
2022-11-18T20:17:26.687Z,4.77
2022-11-18T20:19:54.558Z,5.20
2022-11-18T20:22:22.414Z,5.00
2022-11-18T20:24:50.330Z,4.83
2022-11-18T20:27:18.785Z,4.83
2022-11-18T20:29:47.080Z,5.63
2022-11-18T20:32:14.881Z,5.00
2022-11-18T20:34:44.142Z,4.50
2022-11-18T20:37:12.901Z,4.97
2022-11-18T20:39:40.720Z,4.53
2022-11-18T20:42:26.178Z,6.70
2022-11-18T20:44:54.152Z,5.63
2022-11-18T20:47:22.177Z,6.27
2022-11-18T20:49:51.763Z,6.03
2022-11-18T20:52:19.671Z,5.73
2022-11-18T20:54:47.562Z,5.70
2022-11-18T20:57:17.332Z,4.67
2022-11-18T20:59:45.339Z,5.37
2022-11-18T21:02:13.304Z,4.77
2022-11-18T21:04:41.126Z,5.07
2022-11-18T21:07:10.572Z,4.87
2022-11-18T21:09:38.456Z,5.00
2022-11-18T21:12:06.626Z,5.33
2022-11-18T21:14:33.718Z,4.70
2022-11-18T21:17:01.650Z,5.10
2022-11-18T21:19:30.453Z,4.53
2022-11-18T21:21:57.619Z,6.53
2022-11-18T21:24:29.650Z,5.33
2022-11-18T21:26:58.708Z,5.87
2022-11-18T21:29:28.282Z,5.50
2022-11-18T21:31:56.613Z,6.10
2022-11-18T21:34:25.262Z,5.87
2022-11-18T21:36:55.189Z,5.50
2022-11-18T21:39:25.384Z,5.47
2022-11-18T21:41:57.342Z,5.40
2022-11-18T21:44:27.948Z,5.87
2022-11-18T21:46:56.773Z,5.50
2022-11-18T21:49:24.916Z,6.40
2022-11-18T21:51:52.866Z,6.70
2022-11-18T21:54:20.712Z,6.57
2022-11-18T21:56:49.226Z,5.77
2022-11-18T21:59:19.093Z,6.67
2022-11-18T22:01:47.336Z,6.53
2022-11-18T22:04:35.659Z,6.80
2022-11-18T22:07:05.176Z,6.23
2022-11-18T22:09:36.654Z,6.70
2022-11-18T22:12:07.705Z,6.70
2022-11-18T22:14:37.457Z,6.53
2022-11-18T22:17:06.128Z,6.40
2022-11-18T22:19:33.854Z,6.40
2022-11-18T22:22:01.852Z,6.80
2022-11-18T22:24:30.031Z,7.23
2022-11-18T22:26:58.470Z,7.33
2022-11-18T22:29:26.480Z,6.93
2022-11-18T22:31:55.710Z,6.63
2022-11-18T22:34:23.637Z,6.20
2022-11-18T22:36:51.527Z,5.60
2022-11-18T22:39:19.585Z,5.80
2022-11-18T22:42:05.726Z,5.10
2022-11-18T22:44:33.841Z,5.87
2022-11-18T22:47:03.565Z,6.43
2022-11-18T22:49:31.810Z,6.10
2022-11-18T22:52:00.437Z,6.30
2022-11-18T22:54:43.465Z,5.37
2022-11-18T22:57:11.359Z,5.47
2022-11-18T22:59:39.126Z,4.90
2022-11-18T23:02:08.463Z,5.73
2022-11-18T23:04:36.705Z,4.67
2022-11-18T23:07:05.058Z,4.70
2022-11-18T23:09:35.047Z,4.60
2022-11-18T23:12:20.701Z,4.30
2022-11-18T23:14:48.750Z,5.03
2022-11-18T23:17:18.167Z,4.20
2022-11-18T23:19:46.955Z,4.33
2022-11-18T23:22:15.739Z,3.87
2022-11-18T23:24:43.980Z,3.43
2022-11-18T23:27:12.274Z,3.20
2022-11-18T23:29:41.182Z,3.37
2022-11-18T23:32:09.411Z,2.90
2022-11-18T23:34:41.907Z,3.40
2022-11-18T23:37:10.503Z,3.20
2022-11-18T23:39:38.697Z,3.20
2022-11-18T23:42:06.884Z,3.07
2022-11-18T23:44:46.721Z,3.17
2022-11-18T23:47:14.750Z,3.30
2022-11-18T23:49:44.183Z,3.20
2022-11-18T23:52:16.076Z,3.40
2022-11-18T23:54:44.495Z,3.60
2022-11-18T23:57:12.907Z,3.93
2022-11-18T23:59:40.804Z,3.20
